YCCY

Cloncurry Airport

Cloncurry, Australia
METAR YCCY 230000Z AUTO 13018KT //// // ////// 21/01 Q1021
Observed Flight Rules
May-23 @ 00:00 UTC (50 minutes ago)
Wind
130° at 18 knots
Temperatures Readings
Current 21°C / 70°F
Dewpoint 1°C / 34°F
Humidity 27%
Altimeter 30.15" Hg
Pressure 1021 hPa
Elevation 570
METAR YCCY 230000Z AUTO 13018KT //// // ////// 21/01 Q1021
Observed Flight Rules
May-23 @ 00:00 UTC
(50 minutes ago)
Wind
130° at 18 knots
Temperature Dewpoint
21°C / 70°F 1°C / 34°F
Humidity Altimeter Pressure
27% 30.15" Hg 1021 hPa